sensor_id;sensor_type;location;lat;lon;timestamp;P1;durP1;ratioP1;P2;durP2;ratioP2
11121;SDS011;5615;49.304;10.576;2023-02-28T00:00:50;5.80;;;4.67;;
11121;SDS011;5615;49.304;10.576;2023-02-28T00:03:17;7.20;;;5.10;;
11121;SDS011;5615;49.304;10.576;2023-02-28T00:05:43;6.60;;;5.00;;
11121;SDS011;5615;49.304;10.576;2023-02-28T00:08:10;6.97;;;4.97;;
11121;SDS011;5615;49.304;10.576;2023-02-28T00:10:38;6.87;;;4.53;;
11121;SDS011;5615;49.304;10.576;2023-02-28T00:13:05;8.43;;;4.70;;
11121;SDS011;5615;49.304;10.576;2023-02-28T00:15:33;8.13;;;5.10;;
11121;SDS011;5615;49.304;10.576;2023-02-28T00:18:01;7.20;;;4.90;;
11121;SDS011;5615;49.304;10.576;2023-02-28T00:20:28;6.20;;;4.87;;
11121;SDS011;5615;49.304;10.576;2023-02-28T00:22:54;7.13;;;5.10;;
11121;SDS011;5615;49.304;10.576;2023-02-28T00:25:22;8.37;;;4.87;;
11121;SDS011;5615;49.304;10.576;2023-02-28T00:27:50;8.07;;;5.33;;
11121;SDS011;5615;49.304;10.576;2023-02-28T00:30:18;8.73;;;5.23;;
11121;SDS011;5615;49.304;10.576;2023-02-28T00:32:47;8.40;;;5.47;;
11121;SDS011;5615;49.304;10.576;2023-02-28T00:35:14;7.00;;;5.47;;
11121;SDS011;5615;49.304;10.576;2023-02-28T00:37:41;8.57;;;4.93;;
11121;SDS011;5615;49.304;10.576;2023-02-28T00:40:09;7.87;;;5.33;;
11121;SDS011;5615;49.304;10.576;2023-02-28T00:42:37;7.93;;;5.00;;
11121;SDS011;5615;49.304;10.576;2023-02-28T00:45:04;7.30;;;4.93;;
11121;SDS011;5615;49.304;10.576;2023-02-28T00:47:33;6.60;;;5.20;;
11121;SDS011;5615;49.304;10.576;2023-02-28T00:50:01;8.27;;;5.30;;
11121;SDS011;5615;49.304;10.576;2023-02-28T00:52:28;6.97;;;4.97;;
11121;SDS011;5615;49.304;10.576;2023-02-28T00:54:55;9.97;;;4.80;;
11121;SDS011;5615;49.304;10.576;2023-02-28T00:57:21;7.87;;;5.37;;
11121;SDS011;5615;49.304;10.576;2023-02-28T00:59:48;6.87;;;5.03;;
11121;SDS011;5615;49.304;10.576;2023-02-28T01:02:15;6.03;;;4.80;;
11121;SDS011;5615;49.304;10.576;2023-02-28T01:04:43;6.70;;;4.83;;
11121;SDS011;5615;49.304;10.576;2023-02-28T01:07:11;6.83;;;4.97;;
11121;SDS011;5615;49.304;10.576;2023-02-28T01:09:39;7.77;;;5.27;;
11121;SDS011;5615;49.304;10.576;2023-02-28T01:12:06;6.63;;;5.17;;
11121;SDS011;5615;49.304;10.576;2023-02-28T01:14:33;7.63;;;5.20;;
11121;SDS011;5615;49.304;10.576;2023-02-28T01:17:01;7.00;;;5.10;;
11121;SDS011;5615;49.304;10.576;2023-02-28T01:19:27;7.53;;;5.00;;
11121;SDS011;5615;49.304;10.576;2023-02-28T01:21:54;6.80;;;5.43;;
11121;SDS011;5615;49.304;10.576;2023-02-28T01:24:22;7.77;;;5.30;;
11121;SDS011;5615;49.304;10.576;2023-02-28T01:26:48;6.60;;;4.70;;
11121;SDS011;5615;49.304;10.576;2023-02-28T01:29:15;6.23;;;4.93;;
11121;SDS011;5615;49.304;10.576;2023-02-28T01:31:41;6.77;;;5.07;;
11121;SDS011;5615;49.304;10.576;2023-02-28T01:34:08;9.63;;;5.03;;
11121;SDS011;5615;49.304;10.576;2023-02-28T01:36:34;6.47;;;5.20;;
11121;SDS011;5615;49.304;10.576;2023-02-28T01:39:02;8.57;;;5.80;;
11121;SDS011;5615;49.304;10.576;2023-02-28T01:41:31;9.07;;;5.70;;
11121;SDS011;5615;49.304;10.576;2023-02-28T01:44:00;9.00;;;5.90;;
11121;SDS011;5615;49.304;10.576;2023-02-28T01:46:29;6.50;;;4.87;;
11121;SDS011;5615;49.304;10.576;2023-02-28T01:48:58;6.97;;;5.30;;
11121;SDS011;5615;49.304;10.576;2023-02-28T01:51:30;6.77;;;5.20;;
11121;SDS011;5615;49.304;10.576;2023-02-28T01:54:01;8.67;;;5.63;;
11121;SDS011;5615;49.304;10.576;2023-02-28T01:56:40;9.73;;;5.63;;
11121;SDS011;5615;49.304;10.576;2023-02-28T01:59:10;7.77;;;5.87;;
11121;SDS011;5615;49.304;10.576;2023-02-28T02:01:40;9.77;;;5.60;;
11121;SDS011;5615;49.304;10.576;2023-02-28T02:04:07;8.77;;;5.83;;
11121;SDS011;5615;49.304;10.576;2023-02-28T02:06:35;8.63;;;5.83;;
11121;SDS011;5615;49.304;10.576;2023-02-28T02:09:05;8.77;;;5.80;;
11121;SDS011;5615;49.304;10.576;2023-02-28T02:11:32;9.70;;;5.70;;
11121;SDS011;5615;49.304;10.576;2023-02-28T02:14:12;8.63;;;5.83;;
11121;SDS011;5615;49.304;10.576;2023-02-28T02:16:58;8.57;;;5.57;;
11121;SDS011;5615;49.304;10.576;2023-02-28T02:22:57;9.03;;;5.80;;
11121;SDS011;5615;49.304;10.576;2023-02-28T02:25:39;7.80;;;5.77;;
11121;SDS011;5615;49.304;10.576;2023-02-28T02:28:27;8.70;;;5.63;;
11121;SDS011;5615;49.304;10.576;2023-02-28T02:37:24;7.77;;;5.70;;
11121;SDS011;5615;49.304;10.576;2023-02-28T02:39:59;7.67;;;5.80;;
11121;SDS011;5615;49.304;10.576;2023-02-28T02:42:31;8.70;;;6.20;;
11121;SDS011;5615;49.304;10.576;2023-02-28T02:45:03;10.33;;;6.70;;
11121;SDS011;5615;49.304;10.576;2023-02-28T02:47:33;9.57;;;6.07;;
11121;SDS011;5615;49.304;10.576;2023-02-28T02:50:04;8.90;;;6.03;;
11121;SDS011;5615;49.304;10.576;2023-02-28T02:52:34;11.43;;;6.77;;
11121;SDS011;5615;49.304;10.576;2023-02-28T02:55:04;9.27;;;6.80;;
11121;SDS011;5615;49.304;10.576;2023-02-28T02:57:36;14.37;;;7.37;;
11121;SDS011;5615;49.304;10.576;2023-02-28T03:00:07;10.87;;;6.97;;
11121;SDS011;5615;49.304;10.576;2023-02-28T03:02:36;12.67;;;7.70;;
11121;SDS011;5615;49.304;10.576;2023-02-28T03:05:06;11.90;;;8.00;;
11121;SDS011;5615;49.304;10.576;2023-02-28T03:07:39;13.23;;;7.90;;
11121;SDS011;5615;49.304;10.576;2023-02-28T03:12:56;10.40;;;7.97;;
11121;SDS011;5615;49.304;10.576;2023-02-28T03:15:31;10.90;;;7.33;;
11121;SDS011;5615;49.304;10.576;2023-02-28T03:18:06;11.13;;;6.53;;
11121;SDS011;5615;49.304;10.576;2023-02-28T03:20:39;13.27;;;7.37;;
11121;SDS011;5615;49.304;10.576;2023-02-28T03:23:13;10.87;;;6.17;;
11121;SDS011;5615;49.304;10.576;2023-02-28T03:25:50;15.80;;;7.40;;
11121;SDS011;5615;49.304;10.576;2023-02-28T03:28:22;11.37;;;7.00;;
11121;SDS011;5615;49.304;10.576;2023-02-28T03:30:58;11.13;;;6.70;;
11121;SDS011;5615;49.304;10.576;2023-02-28T03:33:30;12.57;;;6.83;;
11121;SDS011;5615;49.304;10.576;2023-02-28T03:36:02;12.50;;;6.97;;
11121;SDS011;5615;49.304;10.576;2023-02-28T03:38:33;10.53;;;7.57;;
11121;SDS011;5615;49.304;10.576;2023-02-28T03:41:05;10.10;;;6.93;;
11121;SDS011;5615;49.304;10.576;2023-02-28T03:43:38;11.80;;;7.13;;
11121;SDS011;5615;49.304;10.576;2023-02-28T03:46:09;12.40;;;7.07;;
11121;SDS011;5615;49.304;10.576;2023-02-28T03:48:39;11.07;;;7.13;;
11121;SDS011;5615;49.304;10.576;2023-02-28T03:51:10;10.33;;;6.23;;
11121;SDS011;5615;49.304;10.576;2023-02-28T03:53:42;11.60;;;7.53;;
11121;SDS011;5615;49.304;10.576;2023-02-28T03:56:12;11.47;;;6.93;;
11121;SDS011;5615;49.304;10.576;2023-02-28T03:58:42;15.00;;;7.57;;
11121;SDS011;5615;49.304;10.576;2023-02-28T04:01:15;12.33;;;7.83;;
11121;SDS011;5615;49.304;10.576;2023-02-28T04:03:46;13.23;;;8.07;;
11121;SDS011;5615;49.304;10.576;2023-02-28T04:06:15;12.83;;;7.97;;
11121;SDS011;5615;49.304;10.576;2023-02-28T04:08:44;11.97;;;7.30;;
11121;SDS011;5615;49.304;10.576;2023-02-28T04:11:14;10.57;;;7.17;;
11121;SDS011;5615;49.304;10.576;2023-02-28T04:13:45;13.37;;;7.83;;
11121;SDS011;5615;49.304;10.576;2023-02-28T04:16:13;11.63;;;7.80;;
11121;SDS011;5615;49.304;10.576;2023-02-28T04:18:40;12.10;;;7.77;;
11121;SDS011;5615;49.304;10.576;2023-02-28T04:21:08;11.40;;;7.50;;
11121;SDS011;5615;49.304;10.576;2023-02-28T04:23:36;14.20;;;7.53;;
11121;SDS011;5615;49.304;10.576;2023-02-28T04:26:03;10.23;;;7.63;;
11121;SDS011;5615;49.304;10.576;2023-02-28T04:28:30;14.37;;;7.80;;
11121;SDS011;5615;49.304;10.576;2023-02-28T04:30:58;13.80;;;8.17;;
11121;SDS011;5615;49.304;10.576;2023-02-28T04:33:26;12.37;;;8.10;;
11121;SDS011;5615;49.304;10.576;2023-02-28T04:35:59;10.17;;;7.40;;
11121;SDS011;5615;49.304;10.576;2023-02-28T04:38:25;11.13;;;7.63;;
11121;SDS011;5615;49.304;10.576;2023-02-28T04:40:54;12.70;;;8.60;;
11121;SDS011;5615;49.304;10.576;2023-02-28T04:43:23;13.73;;;8.60;;
11121;SDS011;5615;49.304;10.576;2023-02-28T04:45:49;13.10;;;7.57;;
11121;SDS011;5615;49.304;10.576;2023-02-28T04:48:16;13.37;;;8.33;;
11121;SDS011;5615;49.304;10.576;2023-02-28T04:50:42;13.30;;;7.43;;
11121;SDS011;5615;49.304;10.576;2023-02-28T04:53:09;12.33;;;8.33;;
11121;SDS011;5615;49.304;10.576;2023-02-28T04:55:36;14.37;;;8.87;;
11121;SDS011;5615;49.304;10.576;2023-02-28T04:58:06;12.97;;;8.37;;
11121;SDS011;5615;49.304;10.576;2023-02-28T05:00:33;14.00;;;8.47;;
11121;SDS011;5615;49.304;10.576;2023-02-28T05:02:59;12.47;;;8.77;;
11121;SDS011;5615;49.304;10.576;2023-02-28T05:05:26;13.37;;;8.77;;
11121;SDS011;5615;49.304;10.576;2023-02-28T05:07:53;14.70;;;9.10;;
11121;SDS011;5615;49.304;10.576;2023-02-28T05:10:20;16.57;;;8.90;;
11121;SDS011;5615;49.304;10.576;2023-02-28T05:12:47;16.57;;;9.73;;
11121;SDS011;5615;49.304;10.576;2023-02-28T05:15:15;15.70;;;9.60;;
11121;SDS011;5615;49.304;10.576;2023-02-28T05:17:43;15.30;;;9.47;;
11121;SDS011;5615;49.304;10.576;2023-02-28T05:20:10;16.00;;;10.70;;
11121;SDS011;5615;49.304;10.576;2023-02-28T05:22:38;16.97;;;10.77;;
11121;SDS011;5615;49.304;10.576;2023-02-28T05:25:05;17.17;;;10.63;;
11121;SDS011;5615;49.304;10.576;2023-02-28T05:27:32;18.90;;;10.57;;
11121;SDS011;5615;49.304;10.576;2023-02-28T05:29:59;18.23;;;10.17;;
11121;SDS011;5615;49.304;10.576;2023-02-28T05:32:29;16.50;;;10.53;;
11121;SDS011;5615;49.304;10.576;2023-02-28T05:34:56;15.63;;;10.87;;
11121;SDS011;5615;49.304;10.576;2023-02-28T05:37:22;17.17;;;9.83;;
11121;SDS011;5615;49.304;10.576;2023-02-28T05:39:49;17.77;;;11.07;;
11121;SDS011;5615;49.304;10.576;2023-02-28T05:42:16;18.33;;;10.60;;
11121;SDS011;5615;49.304;10.576;2023-02-28T05:44:42;16.00;;;10.47;;
11121;SDS011;5615;49.304;10.576;2023-02-28T05:47:09;17.67;;;11.07;;
11121;SDS011;5615;49.304;10.576;2023-02-28T05:49:37;17.97;;;11.17;;
11121;SDS011;5615;49.304;10.576;2023-02-28T05:52:03;18.27;;;11.00;;
11121;SDS011;5615;49.304;10.576;2023-02-28T05:54:30;16.50;;;10.53;;
11121;SDS011;5615;49.304;10.576;2023-02-28T05:56:57;16.07;;;10.37;;
11121;SDS011;5615;49.304;10.576;2023-02-28T05:59:23;15.17;;;10.40;;
11121;SDS011;5615;49.304;10.576;2023-02-28T06:01:50;17.03;;;11.00;;
11121;SDS011;5615;49.304;10.576;2023-02-28T06:04:19;18.07;;;11.03;;
11121;SDS011;5615;49.304;10.576;2023-02-28T06:06:48;18.07;;;11.13;;
11121;SDS011;5615;49.304;10.576;2023-02-28T06:09:15;18.17;;;10.97;;
11121;SDS011;5615;49.304;10.576;2023-02-28T06:11:42;18.17;;;10.30;;
11121;SDS011;5615;49.304;10.576;2023-02-28T06:14:12;16.33;;;10.90;;
11121;SDS011;5615;49.304;10.576;2023-02-28T06:16:41;18.43;;;10.87;;
11121;SDS011;5615;49.304;10.576;2023-02-28T06:19:08;18.13;;;10.23;;
11121;SDS011;5615;49.304;10.576;2023-02-28T06:21:35;18.33;;;10.80;;
11121;SDS011;5615;49.304;10.576;2023-02-28T06:24:04;16.97;;;11.03;;
11121;SDS011;5615;49.304;10.576;2023-02-28T06:26:31;17.73;;;11.07;;
11121;SDS011;5615;49.304;10.576;2023-02-28T06:28:57;16.03;;;11.07;;
11121;SDS011;5615;49.304;10.576;2023-02-28T06:31:25;19.27;;;10.93;;
11121;SDS011;5615;49.304;10.576;2023-02-28T06:33:54;14.40;;;10.27;;
11121;SDS011;5615;49.304;10.576;2023-02-28T06:36:21;15.67;;;10.37;;
11121;SDS011;5615;49.304;10.576;2023-02-28T06:38:48;12.73;;;9.17;;
11121;SDS011;5615;49.304;10.576;2023-02-28T06:41:20;14.10;;;9.30;;
11121;SDS011;5615;49.304;10.576;2023-02-28T06:43:47;14.83;;;9.63;;
11121;SDS011;5615;49.304;10.576;2023-02-28T06:46:14;15.20;;;10.00;;
11121;SDS011;5615;49.304;10.576;2023-02-28T06:48:42;13.67;;;9.70;;
11121;SDS011;5615;49.304;10.576;2023-02-28T06:51:10;15.40;;;9.63;;
11121;SDS011;5615;49.304;10.576;2023-02-28T06:53:38;14.90;;;9.73;;
11121;SDS011;5615;49.304;10.576;2023-02-28T06:56:05;13.63;;;9.50;;
11121;SDS011;5615;49.304;10.576;2023-02-28T06:58:34;18.37;;;9.53;;
11121;SDS011;5615;49.304;10.576;2023-02-28T07:01:02;24.37;;;10.03;;
11121;SDS011;5615;49.304;10.576;2023-02-28T07:03:29;23.43;;;10.73;;
11121;SDS011;5615;49.304;10.576;2023-02-28T07:05:56;12.80;;;9.33;;
11121;SDS011;5615;49.304;10.576;2023-02-28T07:08:23;14.30;;;9.33;;
11121;SDS011;5615;49.304;10.576;2023-02-28T07:10:51;13.83;;;9.53;;
11121;SDS011;5615;49.304;10.576;2023-02-28T07:13:18;15.47;;;10.20;;
11121;SDS011;5615;49.304;10.576;2023-02-28T07:15:53;19.77;;;10.87;;
11121;SDS011;5615;49.304;10.576;2023-02-28T07:18:20;14.23;;;9.93;;
11121;SDS011;5615;49.304;10.576;2023-02-28T07:20:47;15.87;;;10.83;;
11121;SDS011;5615;49.304;10.576;2023-02-28T07:23:13;21.20;;;11.40;;
11121;SDS011;5615;49.304;10.576;2023-02-28T07:25:40;15.33;;;9.80;;
11121;SDS011;5615;49.304;10.576;2023-02-28T07:28:06;28.23;;;11.80;;
11121;SDS011;5615;49.304;10.576;2023-02-28T07:30:33;16.93;;;10.70;;
11121;SDS011;5615;49.304;10.576;2023-02-28T07:33:01;13.03;;;9.43;;
11121;SDS011;5615;49.304;10.576;2023-02-28T07:35:28;18.43;;;10.47;;
11121;SDS011;5615;49.304;10.576;2023-02-28T07:37:56;17.03;;;11.00;;
11121;SDS011;5615;49.304;10.576;2023-02-28T07:40:23;14.83;;;9.93;;
11121;SDS011;5615;49.304;10.576;2023-02-28T07:42:50;13.77;;;9.37;;
11121;SDS011;5615;49.304;10.576;2023-02-28T07:45:17;16.60;;;9.47;;
11121;SDS011;5615;49.304;10.576;2023-02-28T07:47:44;18.50;;;10.47;;
11121;SDS011;5615;49.304;10.576;2023-02-28T07:50:13;15.30;;;9.17;;
11121;SDS011;5615;49.304;10.576;2023-02-28T07:52:41;14.87;;;9.07;;
11121;SDS011;5615;49.304;10.576;2023-02-28T07:55:08;16.00;;;9.87;;
11121;SDS011;5615;49.304;10.576;2023-02-28T07:57:35;14.77;;;9.40;;
11121;SDS011;5615;49.304;10.576;2023-02-28T08:00:02;17.53;;;9.60;;
11121;SDS011;5615;49.304;10.576;2023-02-28T08:02:30;13.93;;;9.67;;
11121;SDS011;5615;49.304;10.576;2023-02-28T08:04:56;14.60;;;9.13;;
11121;SDS011;5615;49.304;10.576;2023-02-28T08:07:24;12.13;;;8.70;;
11121;SDS011;5615;49.304;10.576;2023-02-28T08:09:51;12.57;;;8.70;;
11121;SDS011;5615;49.304;10.576;2023-02-28T08:12:17;12.87;;;8.57;;
11121;SDS011;5615;49.304;10.576;2023-02-28T08:14:44;13.23;;;8.63;;
11121;SDS011;5615;49.304;10.576;2023-02-28T08:17:11;11.63;;;8.10;;
11121;SDS011;5615;49.304;10.576;2023-02-28T08:19:38;11.37;;;8.10;;
11121;SDS011;5615;49.304;10.576;2023-02-28T08:22:04;15.97;;;8.50;;
11121;SDS011;5615;49.304;10.576;2023-02-28T08:24:32;12.40;;;8.70;;
11121;SDS011;5615;49.304;10.576;2023-02-28T08:26:59;11.37;;;8.47;;
11121;SDS011;5615;49.304;10.576;2023-02-28T08:29:25;12.57;;;8.77;;
11121;SDS011;5615;49.304;10.576;2023-02-28T08:31:52;13.90;;;8.90;;
11121;SDS011;5615;49.304;10.576;2023-02-28T08:34:19;16.47;;;8.83;;
11121;SDS011;5615;49.304;10.576;2023-02-28T08:36:45;11.47;;;8.47;;
11121;SDS011;5615;49.304;10.576;2023-02-28T08:39:12;13.60;;;9.37;;
11121;SDS011;5615;49.304;10.576;2023-02-28T08:41:41;13.33;;;8.80;;
11121;SDS011;5615;49.304;10.576;2023-02-28T08:44:09;12.00;;;8.43;;
11121;SDS011;5615;49.304;10.576;2023-02-28T08:46:35;12.07;;;8.47;;
11121;SDS011;5615;49.304;10.576;2023-02-28T08:49:02;12.23;;;8.50;;
11121;SDS011;5615;49.304;10.576;2023-02-28T08:51:28;16.57;;;9.37;;
11121;SDS011;5615;49.304;10.576;2023-02-28T08:53:57;13.53;;;9.00;;
11121;SDS011;5615;49.304;10.576;2023-02-28T08:56:25;15.07;;;9.90;;
11121;SDS011;5615;49.304;10.576;2023-02-28T08:58:55;16.07;;;9.13;;
11121;SDS011;5615;49.304;10.576;2023-02-28T09:01:23;15.70;;;9.77;;
11121;SDS011;5615;49.304;10.576;2023-02-28T09:03:52;12.43;;;9.30;;
11121;SDS011;5615;49.304;10.576;2023-02-28T09:06:21;14.07;;;9.53;;
11121;SDS011;5615;49.304;10.576;2023-02-28T09:08:48;11.87;;;8.60;;
11121;SDS011;5615;49.304;10.576;2023-02-28T09:11:16;12.83;;;9.60;;
11121;SDS011;5615;49.304;10.576;2023-02-28T09:13:44;11.37;;;9.00;;
11121;SDS011;5615;49.304;10.576;2023-02-28T09:16:13;14.80;;;9.97;;
11121;SDS011;5615;49.304;10.576;2023-02-28T09:18:41;13.43;;;9.10;;
11121;SDS011;5615;49.304;10.576;2023-02-28T09:21:09;17.00;;;9.47;;
11121;SDS011;5615;49.304;10.576;2023-02-28T09:23:39;14.37;;;10.30;;
11121;SDS011;5615;49.304;10.576;2023-02-28T09:26:06;11.97;;;9.07;;
11121;SDS011;5615;49.304;10.576;2023-02-28T09:28:33;15.40;;;9.47;;
11121;SDS011;5615;49.304;10.576;2023-02-28T09:31:00;13.63;;;9.80;;
11121;SDS011;5615;49.304;10.576;2023-02-28T09:33:28;13.33;;;9.57;;
11121;SDS011;5615;49.304;10.576;2023-02-28T09:35:59;17.57;;;10.63;;
11121;SDS011;5615;49.304;10.576;2023-02-28T09:38:27;16.57;;;10.57;;
11121;SDS011;5615;49.304;10.576;2023-02-28T09:40:55;12.47;;;9.40;;
11121;SDS011;5615;49.304;10.576;2023-02-28T09:43:25;13.40;;;9.17;;
11121;SDS011;5615;49.304;10.576;2023-02-28T09:45:55;10.77;;;8.57;;
11121;SDS011;5615;49.304;10.576;2023-02-28T09:48:27;12.30;;;8.80;;
11121;SDS011;5615;49.304;10.576;2023-02-28T09:51:00;12.03;;;8.93;;
11121;SDS011;5615;49.304;10.576;2023-02-28T09:53:30;13.37;;;9.50;;
11121;SDS011;5615;49.304;10.576;2023-02-28T09:56:01;14.53;;;9.87;;
11121;SDS011;5615;49.304;10.576;2023-02-28T09:58:32;13.37;;;10.23;;
11121;SDS011;5615;49.304;10.576;2023-02-28T10:01:05;15.53;;;10.23;;
11121;SDS011;5615;49.304;10.576;2023-02-28T10:03:36;13.03;;;9.97;;
11121;SDS011;5615;49.304;10.576;2023-02-28T10:06:07;13.53;;;9.60;;
11121;SDS011;5615;49.304;10.576;2023-02-28T10:08:39;11.57;;;9.53;;
11121;SDS011;5615;49.304;10.576;2023-02-28T10:11:12;14.03;;;9.83;;
11121;SDS011;5615;49.304;10.576;2023-02-28T10:13:46;12.53;;;9.90;;
11121;SDS011;5615;49.304;10.576;2023-02-28T10:16:20;12.17;;;9.77;;
11121;SDS011;5615;49.304;10.576;2023-02-28T10:18:53;14.50;;;9.47;;
11121;SDS011;5615;49.304;10.576;2023-02-28T10:21:23;11.97;;;9.97;;
11121;SDS011;5615;49.304;10.576;2023-02-28T10:23:55;11.33;;;9.27;;
11121;SDS011;5615;49.304;10.576;2023-02-28T10:26:27;12.30;;;9.63;;
11121;SDS011;5615;49.304;10.576;2023-02-28T10:28:56;12.10;;;10.07;;
11121;SDS011;5615;49.304;10.576;2023-02-28T10:31:23;11.97;;;9.97;;
11121;SDS011;5615;49.304;10.576;2023-02-28T10:33:50;12.83;;;10.40;;
11121;SDS011;5615;49.304;10.576;2023-02-28T10:36:19;13.53;;;10.60;;
11121;SDS011;5615;49.304;10.576;2023-02-28T10:38:47;12.13;;;10.60;;
11121;SDS011;5615;49.304;10.576;2023-02-28T10:41:15;12.83;;;9.53;;
11121;SDS011;5615;49.304;10.576;2023-02-28T10:43:52;11.27;;;9.53;;
11121;SDS011;5615;49.304;10.576;2023-02-28T10:46:21;11.27;;;9.13;;
11121;SDS011;5615;49.304;10.576;2023-02-28T10:48:59;15.40;;;10.37;;
11121;SDS011;5615;49.304;10.576;2023-02-28T10:51:34;12.73;;;9.97;;
11121;SDS011;5615;49.304;10.576;2023-02-28T10:54:03;14.03;;;10.47;;
11121;SDS011;5615;49.304;10.576;2023-02-28T10:56:30;11.80;;;9.93;;
11121;SDS011;5615;49.304;10.576;2023-02-28T10:58:59;13.50;;;9.73;;
11121;SDS011;5615;49.304;10.576;2023-02-28T11:01:34;12.00;;;9.83;;
11121;SDS011;5615;49.304;10.576;2023-02-28T11:04:03;11.20;;;9.17;;
11121;SDS011;5615;49.304;10.576;2023-02-28T11:06:43;12.33;;;9.70;;
11121;SDS011;5615;49.304;10.576;2023-02-28T11:09:15;14.37;;;9.87;;
11121;SDS011;5615;49.304;10.576;2023-02-28T11:11:46;14.60;;;10.00;;
11121;SDS011;5615;49.304;10.576;2023-02-28T11:14:17;11.07;;;9.97;;
11121;SDS011;5615;49.304;10.576;2023-02-28T11:16:46;10.67;;;9.57;;
11121;SDS011;5615;49.304;10.576;2023-02-28T11:19:16;13.00;;;9.97;;
11121;SDS011;5615;49.304;10.576;2023-02-28T11:21:50;12.57;;;9.70;;
11121;SDS011;5615;49.304;10.576;2023-02-28T11:24:22;12.53;;;9.70;;
11121;SDS011;5615;49.304;10.576;2023-02-28T11:26:50;12.02;;;9.35;;
11121;SDS011;5615;49.304;10.576;2023-02-28T11:29:18;11.32;;;9.38;;
11121;SDS011;5615;49.304;10.576;2023-02-28T11:32:00;11.50;;;9.88;;
11121;SDS011;5615;49.304;10.576;2023-02-28T11:34:28;10.73;;;9.60;;
11121;SDS011;5615;49.304;10.576;2023-02-28T11:36:57;10.63;;;9.60;;
11121;SDS011;5615;49.304;10.576;2023-02-28T11:39:29;10.13;;;9.20;;
11121;SDS011;5615;49.304;10.576;2023-02-28T11:42:03;34.20;;;11.25;;
11121;SDS011;5615;49.304;10.576;2023-02-28T11:44:45;15.60;;;9.73;;
11121;SDS011;5615;49.304;10.576;2023-02-28T11:47:24;11.45;;;10.05;;
11121;SDS011;5615;49.304;10.576;2023-02-28T11:50:03;10.48;;;9.52;;
11121;SDS011;5615;49.304;10.576;2023-02-28T11:52:42;11.38;;;10.15;;
11121;SDS011;5615;49.304;10.576;2023-02-28T11:55:16;10.63;;;9.52;;
11121;SDS011;5615;49.304;10.576;2023-02-28T11:57:52;11.02;;;9.57;;
11121;SDS011;5615;49.304;10.576;2023-02-28T12:00:31;14.35;;;10.27;;
11121;SDS011;5615;49.304;10.576;2023-02-28T12:03:08;11.65;;;9.57;;
11121;SDS011;5615;49.304;10.576;2023-02-28T12:05:44;11.55;;;10.05;;
11121;SDS011;5615;49.304;10.576;2023-02-28T12:08:21;11.80;;;9.98;;
11121;SDS011;5615;49.304;10.576;2023-02-28T12:11:06;10.93;;;9.82;;
11121;SDS011;5615;49.304;10.576;2023-02-28T12:13:43;10.75;;;9.38;;
11121;SDS011;5615;49.304;10.576;2023-02-28T12:19:07;10.60;;;9.52;;
11121;SDS011;5615;49.304;10.576;2023-02-28T12:21:46;10.85;;;9.73;;
11121;SDS011;5615;49.304;10.576;2023-02-28T12:24:31;11.07;;;9.77;;
11121;SDS011;5615;49.304;10.576;2023-02-28T12:27:11;11.05;;;9.95;;
11121;SDS011;5615;49.304;10.576;2023-02-28T12:29:42;13.93;;;10.93;;
11121;SDS011;5615;49.304;10.576;2023-02-28T12:32:14;11.60;;;9.68;;
11121;SDS011;5615;49.304;10.576;2023-02-28T12:34:47;13.93;;;9.98;;
11121;SDS011;5615;49.304;10.576;2023-02-28T12:37:17;14.68;;;9.55;;
11121;SDS011;5615;49.304;10.576;2023-02-28T12:39:51;11.63;;;9.82;;
11121;SDS011;5615;49.304;10.576;2023-02-28T12:42:22;12.75;;;9.90;;
11121;SDS011;5615;49.304;10.576;2023-02-28T12:44:54;13.55;;;10.48;;
11121;SDS011;5615;49.304;10.576;2023-02-28T12:47:24;10.35;;;9.35;;
11121;SDS011;5615;49.304;10.576;2023-02-28T12:49:51;11.35;;;10.13;;
11121;SDS011;5615;49.304;10.576;2023-02-28T12:52:23;11.60;;;10.35;;
11121;SDS011;5615;49.304;10.576;2023-02-28T12:55:02;10.85;;;9.70;;
11121;SDS011;5615;49.304;10.576;2023-02-28T12:57:34;11.15;;;10.05;;
11121;SDS011;5615;49.304;10.576;2023-02-28T13:00:08;11.85;;;9.85;;
11121;SDS011;5615;49.304;10.576;2023-02-28T13:02:51;11.32;;;10.32;;
11121;SDS011;5615;49.304;10.576;2023-02-28T13:05:37;11.85;;;9.63;;
11121;SDS011;5615;49.304;10.576;2023-02-28T13:08:36;13.52;;;10.50;;
11121;SDS011;5615;49.304;10.576;2023-02-28T13:11:25;10.85;;;9.85;;
11121;SDS011;5615;49.304;10.576;2023-02-28T13:13:59;11.05;;;9.57;;
11121;SDS011;5615;49.304;10.576;2023-02-28T13:16:27;14.13;;;9.98;;
11121;SDS011;5615;49.304;10.576;2023-02-28T13:19:08;10.52;;;9.52;;
11121;SDS011;5615;49.304;10.576;2023-02-28T13:21:43;9.75;;;8.85;;
11121;SDS011;5615;49.304;10.576;2023-02-28T13:24:10;10.23;;;9.30;;
11121;SDS011;5615;49.304;10.576;2023-02-28T13:27:19;10.07;;;9.18;;
11121;SDS011;5615;49.304;10.576;2023-02-28T13:33:22;14.45;;;9.10;;
11121;SDS011;5615;49.304;10.576;2023-02-28T13:36:00;10.80;;;9.65;;
11121;SDS011;5615;49.304;10.576;2023-02-28T13:38:38;10.55;;;9.50;;
11121;SDS011;5615;49.304;10.576;2023-02-28T13:44:08;10.13;;;9.13;;
11121;SDS011;5615;49.304;10.576;2023-02-28T13:46:38;10.38;;;9.45;;
11121;SDS011;5615;49.304;10.576;2023-02-28T13:52:45;10.25;;;9.23;;
11121;SDS011;5615;49.304;10.576;2023-02-28T13:55:25;10.50;;;9.55;;
11121;SDS011;5615;49.304;10.576;2023-02-28T13:57:58;10.77;;;9.45;;
11121;SDS011;5615;49.304;10.576;2023-02-28T14:00:42;10.30;;;9.07;;
11121;SDS011;5615;49.304;10.576;2023-02-28T14:03:24;10.20;;;9.15;;
11121;SDS011;5615;49.304;10.576;2023-02-28T14:06:09;10.93;;;9.23;;
11121;SDS011;5615;49.304;10.576;2023-02-28T14:08:45;11.05;;;9.27;;
11121;SDS011;5615;49.304;10.576;2023-02-28T14:11:25;10.25;;;9.32;;
11121;SDS011;5615;49.304;10.576;2023-02-28T14:13:54;10.90;;;9.93;;
11121;SDS011;5615;49.304;10.576;2023-02-28T14:16:21;11.73;;;9.82;;
11121;SDS011;5615;49.304;10.576;2023-02-28T14:18:49;10.20;;;9.30;;
11121;SDS011;5615;49.304;10.576;2023-02-28T14:21:23;10.57;;;9.48;;
11121;SDS011;5615;49.304;10.576;2023-02-28T14:24:03;10.40;;;9.50;;
11121;SDS011;5615;49.304;10.576;2023-02-28T14:29:46;9.65;;;8.75;;
11121;SDS011;5615;49.304;10.576;2023-02-28T14:32:32;10.65;;;9.65;;
11121;SDS011;5615;49.304;10.576;2023-02-28T14:35:09;10.40;;;9.40;;
11121;SDS011;5615;49.304;10.576;2023-02-28T14:37:47;10.18;;;9.18;;
11121;SDS011;5615;49.304;10.576;2023-02-28T14:40:15;10.48;;;9.48;;
11121;SDS011;5615;49.304;10.576;2023-02-28T14:42:46;10.70;;;9.60;;
11121;SDS011;5615;49.304;10.576;2023-02-28T14:45:20;10.23;;;9.25;;
11121;SDS011;5615;49.304;10.576;2023-02-28T14:47:48;10.43;;;9.32;;
11121;SDS011;5615;49.304;10.576;2023-02-28T14:50:19;15.95;;;9.63;;
11121;SDS011;5615;49.304;10.576;2023-02-28T14:52:50;12.68;;;9.75;;
11121;SDS011;5615;49.304;10.576;2023-02-28T14:55:18;10.82;;;9.38;;
11121;SDS011;5615;49.304;10.576;2023-02-28T14:57:52;13.30;;;9.38;;
11121;SDS011;5615;49.304;10.576;2023-02-28T15:00:21;10.48;;;9.48;;
11121;SDS011;5615;49.304;10.576;2023-02-28T15:02:50;11.13;;;9.23;;
11121;SDS011;5615;49.304;10.576;2023-02-28T15:05:25;10.63;;;9.55;;
11121;SDS011;5615;49.304;10.576;2023-02-28T15:08:10;10.23;;;9.32;;
11121;SDS011;5615;49.304;10.576;2023-02-28T15:10:38;11.13;;;9.90;;
11121;SDS011;5615;49.304;10.576;2023-02-28T15:13:09;11.35;;;9.93;;
11121;SDS011;5615;49.304;10.576;2023-02-28T15:15:43;10.43;;;9.18;;
11121;SDS011;5615;49.304;10.576;2023-02-28T15:18:15;11.85;;;9.85;;
11121;SDS011;5615;49.304;10.576;2023-02-28T15:20:49;10.98;;;9.85;;